55CA weather

Naval Hospital Heliport
Oakland, California, United States

Public forecast

Using degrees Fahrenheit for public forecast. Weather courtesy of forecast.io.

Closest aviation weather report (METAR) to Naval Hospital Heliport

Closest report is Metropolitan Oakland International Airport, 4.3 nm (8.0 km) SW. Retrieved 2019/10/16 03:53 UTC (39 minutes ago):

KOAK 160353Z 00000KT 10SM CLR 14/10 A3004 RMK AO2 SLP173 T01390100

Closest aviation forecast (TAF) to Naval Hospital Heliport

Closest forecast is Metropolitan Oakland International Airport, 4.3 nm (8.0 km) SW. Retrieved 2019-10-16 00:27 UTC (4 hours ago):

TAF KOAK 152325Z 1600/1706 29010KT P6SM FEW010 FM160500 30005KT P6SM SCT010 FM160900 VRB03KT P6SM BKN010 FM161200 VRB03KT 5SM BR BKN008 FM161800 26009KT P6SM FEW012 BKN200 FM162300 24010KT P6SM FEW010 SCT080 BKN150